createdAt,value
2022-09-04T00:00:09.022Z,15.60
2022-09-04T00:03:28.716Z,15.62
2022-09-04T00:06:24.364Z,15.63
2022-09-04T00:09:26.929Z,15.61
2022-09-04T00:12:15.415Z,15.47
2022-09-04T00:15:27.165Z,15.64
2022-09-04T00:18:39.572Z,15.73
2022-09-04T00:21:45.039Z,15.70
2022-09-04T00:24:43.405Z,15.63
2022-09-04T00:27:43.644Z,15.51
2022-09-04T00:30:34.323Z,15.79
2022-09-04T00:33:38.460Z,15.73
2022-09-04T00:36:28.302Z,15.66
2022-09-04T00:39:20.378Z,15.49
2022-09-04T00:42:27.627Z,15.49
2022-09-04T00:45:56.570Z,15.50
2022-09-04T00:49:32.777Z,15.01
2022-09-04T00:52:58.475Z,15.63
2022-09-04T00:56:27.915Z,15.56
2022-09-04T00:59:50.321Z,15.63
2022-09-04T01:02:51.898Z,15.60
2022-09-04T01:06:04.230Z,15.64
2022-09-04T01:09:04.214Z,15.64
2022-09-04T01:12:18.055Z,15.67
2022-09-04T01:15:15.744Z,15.65
2022-09-04T01:18:34.289Z,15.45
2022-09-04T01:21:45.667Z,15.75
2022-09-04T01:25:11.267Z,15.67
2022-09-04T01:28:29.510Z,15.76
2022-09-04T01:31:27.263Z,15.49
2022-09-04T01:34:28.416Z,15.63
2022-09-04T01:38:00.304Z,15.65
2022-09-04T01:41:22.772Z,15.63
2022-09-04T01:44:11.104Z,15.64
2022-09-04T01:46:58.869Z,15.74
2022-09-04T01:50:11.041Z,15.80
2022-09-04T01:57:20.507Z,15.83
2022-09-04T02:00:14.366Z,15.80
2022-09-04T02:03:07.267Z,15.83
2022-09-04T02:06:15.665Z,15.80
2022-09-04T02:09:11.773Z,15.78
2022-09-04T02:12:12.344Z,15.82
2022-09-04T02:15:13.117Z,15.85
2022-09-04T02:18:36.286Z,15.84
2022-09-04T02:21:33.301Z,15.82
2022-09-04T02:24:49.559Z,15.85
2022-09-04T02:27:39.874Z,15.84
2022-09-04T02:30:32.710Z,15.76
2022-09-04T02:33:46.090Z,15.83
2022-09-04T02:36:50.102Z,15.66
2022-09-04T02:40:01.219Z,15.93
2022-09-04T02:43:10.738Z,15.77
2022-09-04T02:46:13.485Z,15.98
2022-09-04T02:49:07.942Z,15.91
2022-09-04T02:52:21.003Z,15.89
2022-09-04T02:55:46.301Z,15.88
2022-09-04T02:58:36.662Z,15.87
2022-09-04T03:01:37.793Z,15.74
2022-09-04T03:04:50.280Z,15.90
2022-09-04T03:07:44.446Z,15.71
2022-09-04T03:10:40.864Z,15.86
2022-09-04T03:13:35.859Z,15.78
2022-09-04T03:16:38.603Z,15.54
2022-09-04T03:20:07.440Z,15.70
2022-09-04T03:22:59.585Z,15.72
2022-09-04T03:26:01.867Z,15.67
2022-09-04T03:29:01.360Z,15.75
2022-09-04T03:31:58.845Z,15.75
2022-09-04T03:34:56.483Z,15.67
2022-09-04T03:37:54.258Z,15.48
2022-09-04T03:40:49.615Z,15.63
2022-09-04T03:43:55.770Z,15.67
2022-09-04T03:46:50.661Z,15.72
2022-09-04T03:50:05.868Z,15.53
2022-09-04T03:53:14.858Z,15.62
2022-09-04T03:56:26.806Z,15.61
2022-09-04T03:59:27.501Z,15.69
2022-09-04T04:02:52.462Z,15.72
2022-09-04T04:05:52.769Z,15.20
2022-09-04T04:09:04.678Z,15.64
2022-09-04T04:12:13.335Z,15.61
2022-09-04T04:15:28.370Z,15.62
2022-09-04T04:18:55.586Z,15.65
2022-09-04T04:22:01.819Z,15.62
2022-09-04T04:25:04.553Z,15.67
2022-09-04T04:28:00.938Z,15.65
2022-09-04T04:30:52.659Z,15.68
2022-09-04T04:34:06.671Z,15.71
2022-09-04T04:37:22.208Z,15.71
2022-09-04T04:40:32.634Z,15.82
2022-09-04T04:43:35.252Z,15.79
2022-09-04T04:46:37.101Z,15.85
2022-09-04T04:49:32.510Z,15.88
2022-09-04T04:52:44.650Z,15.79
2022-09-04T04:55:50.519Z,15.96
2022-09-04T04:58:43.694Z,15.95
2022-09-04T05:01:52.928Z,15.96
2022-09-04T05:05:13.628Z,16.10
2022-09-04T05:08:10.424Z,16.16
2022-09-04T05:11:35.632Z,16.21
2022-09-04T05:14:38.035Z,16.21
2022-09-04T05:17:37.147Z,16.36
2022-09-04T05:20:32.869Z,16.32
2022-09-04T05:23:58.955Z,16.43
2022-09-04T05:27:03.571Z,16.41
2022-09-04T05:30:10.706Z,16.64
2022-09-04T05:33:15.633Z,16.64
2022-09-04T05:36:13.841Z,16.75
2022-09-04T05:39:20.765Z,16.89
2022-09-04T05:42:48.949Z,17.00
2022-09-04T05:46:05.156Z,17.08
2022-09-04T05:49:10.993Z,17.06
2022-09-04T05:52:10.781Z,17.30
2022-09-04T05:55:16.470Z,17.42
2022-09-04T05:58:20.656Z,17.54
2022-09-04T06:01:26.496Z,17.54
2022-09-04T06:04:49.145Z,17.87
2022-09-04T06:07:50.848Z,18.17
2022-09-04T06:10:38.465Z,18.24
2022-09-04T06:14:11.462Z,18.08
2022-09-04T06:17:44.657Z,17.72
2022-09-04T06:20:58.384Z,17.64
2022-09-04T06:24:04.698Z,17.76
2022-09-04T06:27:23.894Z,17.93
2022-09-04T06:30:14.098Z,18.10
2022-09-04T06:33:10.735Z,18.18
2022-09-04T06:36:14.065Z,18.64
2022-09-04T06:39:26.461Z,18.99
2022-09-04T06:42:27.653Z,18.79
2022-09-04T06:45:23.137Z,18.67
2022-09-04T06:48:23.041Z,18.43
2022-09-04T06:51:33.791Z,18.48
2022-09-04T06:54:49.803Z,18.39
2022-09-04T06:57:49.249Z,18.20
2022-09-04T07:00:46.593Z,18.44
2022-09-04T07:04:04.625Z,18.41
2022-09-04T07:07:08.627Z,18.25
2022-09-04T07:10:16.481Z,18.29
2022-09-04T07:13:38.016Z,18.69
2022-09-04T07:16:44.587Z,18.55
2022-09-04T07:20:01.358Z,18.47
2022-09-04T07:23:17.130Z,18.69
2022-09-04T07:26:19.749Z,19.21
2022-09-04T07:29:31.977Z,19.16
2022-09-04T07:32:34.842Z,19.37
2022-09-04T07:35:29.366Z,19.55
2022-09-04T07:38:32.615Z,19.65
2022-09-04T07:41:39.161Z,19.66
2022-09-04T07:44:47.091Z,19.61
2022-09-04T07:47:47.991Z,19.75
2022-09-04T07:50:41.249Z,20.34
2022-09-04T07:53:44.099Z,20.57
2022-09-04T07:56:38.269Z,20.90
2022-09-04T07:59:54.200Z,20.79
2022-09-04T08:03:19.193Z,20.41
2022-09-04T08:06:15.088Z,21.21
2022-09-04T08:09:08.545Z,21.63
2022-09-04T08:12:06.486Z,21.21
2022-09-04T08:15:16.337Z,20.94
2022-09-04T08:18:20.282Z,20.76
2022-09-04T08:21:12.929Z,20.67
2022-09-04T08:24:15.898Z,21.29
2022-09-04T08:27:27.815Z,21.30
2022-09-04T08:30:19.396Z,21.69
2022-09-04T08:33:33.470Z,21.33
2022-09-04T08:36:35.078Z,21.15
2022-09-04T08:39:51.298Z,21.15
2022-09-04T08:43:09.306Z,21.06
2022-09-04T08:46:00.081Z,21.08
2022-09-04T08:48:59.605Z,21.60
2022-09-04T08:51:50.062Z,21.86
2022-09-04T08:55:12.069Z,21.63
2022-09-04T08:58:13.244Z,22.16
2022-09-04T09:01:30.100Z,22.42
2022-09-04T09:04:48.830Z,22.96
2022-09-04T09:08:07.444Z,22.83
2022-09-04T09:11:07.019Z,22.65
2022-09-04T09:14:13.249Z,23.25
2022-09-04T09:17:12.613Z,22.91
2022-09-04T09:20:25.534Z,23.59
2022-09-04T09:23:20.415Z,24.12
2022-09-04T09:26:17.567Z,24.15
2022-09-04T09:29:42.506Z,23.50
2022-09-04T09:32:48.846Z,23.98
2022-09-04T09:36:02.899Z,24.35
2022-09-04T09:39:02.555Z,24.28
2022-09-04T09:42:08.454Z,24.13
2022-09-04T09:45:08.982Z,23.69
2022-09-04T09:48:26.325Z,23.89
2022-09-04T09:51:32.961Z,23.76
2022-09-04T09:54:48.347Z,23.96
2022-09-04T09:57:50.951Z,24.02
2022-09-04T10:00:46.573Z,24.29
2022-09-04T10:03:40.138Z,24.03
2022-09-04T10:06:50.794Z,24.11
2022-09-04T10:09:48.158Z,24.45
2022-09-04T10:13:03.345Z,24.75
2022-09-04T10:16:17.340Z,24.42
2022-09-04T10:19:16.631Z,24.39
2022-09-04T10:22:37.866Z,24.66
2022-09-04T10:25:49.169Z,24.64
2022-09-04T10:29:11.445Z,24.82
2022-09-04T10:32:34.516Z,24.70
2022-09-04T10:35:43.511Z,24.99
2022-09-04T10:39:08.152Z,24.76
2022-09-04T10:42:08.016Z,24.63
2022-09-04T10:44:58.893Z,25.45
2022-09-04T10:48:02.174Z,25.53
2022-09-04T10:51:19.429Z,25.52
2022-09-04T10:54:36.977Z,25.21
2022-09-04T10:57:41.382Z,25.44
2022-09-04T11:01:10.714Z,25.71
2022-09-04T11:04:47.513Z,25.89
2022-09-04T11:08:22.725Z,25.90
2022-09-04T11:11:14.306Z,25.47
2022-09-04T11:14:06.708Z,25.81
2022-09-04T11:17:24.575Z,25.84
2022-09-04T11:20:34.471Z,25.95
2022-09-04T11:23:40.986Z,25.53
2022-09-04T11:27:05.943Z,25.74
2022-09-04T11:30:04.725Z,25.71
2022-09-04T11:33:14.446Z,26.11
2022-09-04T11:36:02.133Z,25.50
2022-09-04T11:38:52.315Z,25.67
2022-09-04T11:42:09.909Z,25.79
2022-09-04T11:45:11.546Z,26.08
2022-09-04T11:48:25.704Z,25.92
2022-09-04T11:51:40.787Z,26.28
2022-09-04T11:54:57.305Z,26.04
2022-09-04T11:57:53.054Z,26.12
2022-09-04T12:01:09.976Z,26.10
2022-09-04T12:04:23.338Z,26.37
2022-09-04T12:07:19.067Z,26.43
2022-09-04T12:10:56.936Z,26.27
2022-09-04T12:14:16.644Z,26.26
2022-09-04T12:17:44.773Z,26.08
2022-09-04T12:21:07.342Z,26.03
2022-09-04T12:24:30.866Z,26.10
2022-09-04T12:27:36.132Z,25.97
2022-09-04T12:30:31.974Z,25.95
2022-09-04T12:33:47.420Z,25.94
2022-09-04T12:37:31.310Z,26.12
2022-09-04T12:40:28.575Z,26.26
2022-09-04T12:43:31.273Z,26.51
2022-09-04T12:46:56.110Z,26.66
2022-09-04T12:49:59.116Z,26.60
2022-09-04T12:52:56.567Z,26.15
2022-09-04T12:56:13.867Z,25.80
2022-09-04T12:59:26.872Z,25.08
2022-09-04T13:02:41.534Z,25.10
2022-09-04T13:05:55.601Z,24.98
2022-09-04T13:09:10.336Z,25.28
2022-09-04T13:12:37.580Z,24.92
2022-09-04T13:16:18.988Z,25.23
2022-09-04T13:19:13.921Z,25.21
2022-09-04T13:22:13.146Z,25.45
2022-09-04T13:25:12.690Z,25.67
2022-09-04T13:28:03.470Z,25.63
2022-09-04T13:31:19.538Z,25.69
2022-09-04T13:34:16.972Z,25.37
2022-09-04T13:37:13.801Z,25.04
2022-09-04T13:40:10.799Z,24.66
2022-09-04T13:43:27.600Z,24.41
2022-09-04T13:46:21.069Z,24.20
2022-09-04T13:49:16.643Z,23.82
2022-09-04T13:52:08.708Z,24.32
2022-09-04T13:55:22.714Z,24.18
2022-09-04T13:58:24.163Z,24.06
2022-09-04T14:01:15.899Z,24.10
2022-09-04T14:04:07.970Z,24.18
2022-09-04T14:07:02.645Z,24.38
2022-09-04T14:09:57.539Z,24.44
2022-09-04T14:13:04.162Z,24.54
2022-09-04T14:16:14.756Z,24.52
2022-09-04T14:19:18.322Z,24.60
2022-09-04T14:22:23.115Z,24.47
2022-09-04T14:25:28.628Z,24.55
2022-09-04T14:28:53.297Z,24.54
2022-09-04T14:32:16.051Z,24.15
2022-09-04T14:35:36.063Z,24.03
2022-09-04T14:38:44.976Z,23.75
2022-09-04T14:41:37.816Z,23.76
2022-09-04T14:44:44.347Z,23.69
2022-09-04T14:47:55.646Z,23.41
2022-09-04T14:50:55.955Z,23.37
2022-09-04T14:53:50.469Z,23.40
2022-09-04T14:56:49.610Z,23.29
2022-09-04T15:00:02.408Z,23.23
2022-09-04T15:03:02.542Z,23.12
2022-09-04T15:06:02.160Z,23.11
2022-09-04T15:08:50.901Z,23.00
2022-09-04T15:11:38.725Z,22.97
2022-09-04T15:14:37.146Z,22.80
2022-09-04T15:17:29.699Z,22.74
2022-09-04T15:20:28.559Z,22.54
2022-09-04T15:23:47.311Z,22.79
2022-09-04T15:26:46.718Z,22.77
2022-09-04T15:29:54.940Z,22.76
2022-09-04T15:32:47.362Z,22.76
2022-09-04T15:35:36.494Z,22.72
2022-09-04T15:38:28.269Z,22.80
2022-09-04T15:41:19.670Z,22.66
2022-09-04T15:44:31.918Z,22.58
2022-09-04T15:47:56.281Z,22.63
2022-09-04T15:51:21.112Z,22.42
2022-09-04T15:54:21.927Z,22.34
2022-09-04T15:57:46.131Z,22.30
2022-09-04T16:00:38.622Z,22.33
2022-09-04T16:03:36.814Z,22.18
2022-09-04T16:06:32.529Z,22.26
2022-09-04T16:09:33.999Z,22.15
2022-09-04T16:12:31.787Z,22.06
2022-09-04T16:15:38.082Z,21.97
2022-09-04T16:18:35.423Z,21.81
2022-09-04T16:21:58.439Z,21.87
2022-09-04T16:24:58.174Z,21.83
2022-09-04T16:28:20.301Z,21.79
2022-09-04T16:31:14.667Z,21.68
2022-09-04T16:34:16.720Z,21.60
2022-09-04T16:37:16.536Z,21.50
2022-09-04T16:40:27.579Z,21.57
2022-09-04T16:43:36.312Z,21.48
2022-09-04T16:46:32.737Z,21.28
2022-09-04T16:49:29.837Z,21.22
2022-09-04T16:52:27.616Z,21.14
2022-09-04T16:55:35.938Z,21.12
2022-09-04T16:58:50.550Z,21.09
2022-09-04T17:01:56.019Z,20.96
2022-09-04T17:04:52.885Z,20.81
2022-09-04T17:07:51.781Z,20.80
2022-09-04T17:11:16.927Z,20.75
2022-09-04T17:14:22.907Z,20.55
2022-09-04T17:17:30.609Z,20.56
2022-09-04T17:26:22.673Z,20.51
2022-09-04T17:28:59.674Z,20.37
2022-09-04T17:29:11.494Z,20.19
2022-09-04T17:31:07.326Z,20.13
2022-09-04T17:40:35.641Z,20.13
2022-09-04T17:40:40.546Z,20.00
2022-09-04T17:41:57.032Z,20.06
2022-09-04T17:44:54.014Z,19.97
2022-09-04T17:47:43.666Z,19.92
2022-09-04T17:50:31.704Z,19.87
2022-09-04T17:53:34.741Z,19.88
2022-09-04T17:56:45.878Z,19.77
2022-09-04T17:59:50.589Z,19.69
2022-09-04T18:02:59.885Z,19.55
2022-09-04T18:06:04.127Z,19.64
2022-09-04T18:09:03.680Z,19.70
2022-09-04T18:12:11.286Z,19.66
2022-09-04T18:15:33.080Z,19.64
2022-09-04T18:18:48.375Z,19.71
2022-09-04T18:21:53.955Z,19.69
2022-09-04T18:25:00.183Z,19.67
2022-09-04T18:28:21.818Z,19.59
2022-09-04T18:37:06.871Z,19.51
2022-09-04T18:37:24.738Z,19.51
2022-09-04T18:38:50.219Z,19.52
2022-09-04T18:50:23.192Z,19.39
2022-09-04T18:50:45.371Z,19.33
2022-09-04T18:50:51.123Z,19.39
2022-09-04T18:52:29.992Z,19.24
2022-09-04T18:55:25.011Z,19.25
2022-09-04T18:58:12.851Z,18.82
2022-09-04T19:01:07.315Z,19.33
2022-09-04T19:04:23.892Z,19.34
2022-09-04T19:07:30.282Z,19.27
2022-09-04T19:10:34.710Z,19.21
2022-09-04T19:13:28.267Z,19.19
2022-09-04T19:16:45.788Z,19.19
2022-09-04T19:19:47.074Z,19.15
2022-09-04T19:22:40.096Z,19.01
2022-09-04T19:25:35.206Z,19.13
2022-09-04T19:28:29.424Z,19.21
2022-09-04T19:31:29.993Z,19.11
2022-09-04T19:34:28.646Z,19.00
2022-09-04T19:40:16.588Z,18.96
2022-09-04T19:46:07.641Z,18.92
2022-09-04T19:46:13.205Z,18.89
2022-09-04T19:47:53.991Z,18.84
2022-09-04T19:53:19.282Z,18.82
2022-09-04T19:54:11.265Z,18.71
2022-09-04T19:57:32.752Z,18.72
2022-09-04T20:00:31.090Z,18.70
2022-09-04T20:03:55.169Z,18.66
2022-09-04T20:06:52.859Z,18.61
2022-09-04T20:09:49.122Z,18.55
2022-09-04T20:12:51.389Z,18.48
2022-09-04T20:15:51.951Z,18.46
2022-09-04T20:18:50.984Z,18.28
2022-09-04T20:21:56.723Z,18.28
2022-09-04T20:25:01.269Z,18.24
2022-09-04T20:28:09.044Z,18.23
2022-09-04T20:31:35.901Z,18.12
2022-09-04T20:34:35.414Z,18.13
2022-09-04T20:37:44.792Z,17.92
2022-09-04T20:40:44.473Z,18.00
2022-09-04T20:43:38.576Z,18.01
2022-09-04T20:52:42.941Z,17.87
2022-09-04T20:52:57.623Z,17.75
2022-09-04T20:54:06.819Z,17.76
2022-09-04T21:01:39.953Z,17.77
2022-09-04T21:03:09.889Z,17.66
2022-09-04T21:03:42.301Z,17.64
2022-09-04T21:06:52.982Z,17.70
2022-09-04T21:09:55.720Z,17.59
2022-09-04T21:13:14.442Z,17.59
2022-09-04T21:16:20.456Z,17.47
2022-09-04T21:19:32.864Z,17.57
2022-09-04T21:22:48.810Z,17.33
2022-09-04T21:26:00.217Z,17.41
2022-09-04T21:29:10.824Z,17.41
2022-09-04T21:32:09.307Z,17.41
2022-09-04T21:35:04.877Z,17.22
2022-09-04T21:38:05.420Z,17.35
2022-09-04T21:41:11.391Z,17.29
2022-09-04T21:44:27.650Z,17.24
2022-09-04T21:47:28.114Z,17.23
2022-09-04T21:50:42.828Z,17.05
2022-09-04T21:53:53.378Z,17.08
2022-09-04T22:02:25.467Z,17.05
2022-09-04T22:02:35.691Z,17.01
2022-09-04T22:03:31.916Z,17.03
2022-09-04T22:13:37.959Z,16.92
2022-09-04T22:14:10.699Z,16.89
2022-09-04T22:17:14.491Z,16.36
2022-09-04T22:20:33.115Z,16.84
2022-09-04T22:24:06.932Z,16.87
2022-09-04T22:27:12.598Z,16.76
2022-09-04T22:30:09.763Z,16.76
2022-09-04T22:33:09.421Z,16.66
2022-09-04T22:36:32.564Z,16.85
2022-09-04T22:39:30.978Z,16.78
2022-09-04T22:42:53.172Z,16.78
2022-09-04T22:46:30.731Z,16.80
2022-09-04T22:49:33.676Z,16.69
2022-09-04T22:52:29.060Z,16.63
2022-09-04T22:56:24.242Z,16.72
2022-09-04T22:59:27.927Z,16.67
2022-09-04T23:03:07.324Z,16.59
2022-09-04T23:06:59.008Z,16.54
2022-09-04T23:13:47.863Z,16.42
2022-09-04T23:13:58.563Z,16.47
2022-09-04T23:16:29.628Z,16.39
2022-09-04T23:22:56.639Z,16.23
2022-09-04T23:26:34.769Z,16.14
2022-09-04T23:26:58.618Z,16.18
2022-09-04T23:30:12.798Z,16.11
2022-09-04T23:33:27.977Z,15.99
2022-09-04T23:36:33.609Z,16.09
2022-09-04T23:39:46.567Z,16.00
2022-09-04T23:43:10.148Z,15.93
2022-09-04T23:46:18.252Z,15.94
2022-09-04T23:49:47.528Z,15.87
2022-09-04T23:52:48.890Z,15.68
2022-09-04T23:56:17.035Z,15.88
2022-09-04T23:59:32.416Z,15.82
